sensor_id;sensor_type;location;lat;lon;timestamp;P1;durP1;ratioP1;P2;durP2;ratioP2
20731;SDS011;10527;52.124;5.196;2023-04-06T00:01:02;10.73;;;6.80;;
20731;SDS011;10527;52.124;5.196;2023-04-06T00:03:29;9.33;;;6.47;;
20731;SDS011;10527;52.124;5.196;2023-04-06T00:05:56;8.17;;;6.43;;
20731;SDS011;10527;52.124;5.196;2023-04-06T00:08:23;11.37;;;6.83;;
20731;SDS011;10527;52.124;5.196;2023-04-06T00:10:50;8.87;;;6.00;;
20731;SDS011;10527;52.124;5.196;2023-04-06T00:13:17;11.10;;;7.83;;
20731;SDS011;10527;52.124;5.196;2023-04-06T00:15:44;9.10;;;6.47;;
20731;SDS011;10527;52.124;5.196;2023-04-06T00:18:11;9.20;;;6.87;;
20731;SDS011;10527;52.124;5.196;2023-04-06T00:20:38;9.30;;;6.40;;
20731;SDS011;10527;52.124;5.196;2023-04-06T00:23:04;9.33;;;6.70;;
20731;SDS011;10527;52.124;5.196;2023-04-06T00:25:31;8.17;;;6.20;;
20731;SDS011;10527;52.124;5.196;2023-04-06T00:27:58;11.57;;;7.40;;
20731;SDS011;10527;52.124;5.196;2023-04-06T00:30:25;11.53;;;7.40;;
20731;SDS011;10527;52.124;5.196;2023-04-06T00:32:52;9.73;;;6.43;;
20731;SDS011;10527;52.124;5.196;2023-04-06T00:35:18;10.67;;;6.97;;
20731;SDS011;10527;52.124;5.196;2023-04-06T00:37:46;10.23;;;6.60;;
20731;SDS011;10527;52.124;5.196;2023-04-06T00:40:14;11.20;;;7.23;;
20731;SDS011;10527;52.124;5.196;2023-04-06T00:42:42;10.23;;;7.30;;
20731;SDS011;10527;52.124;5.196;2023-04-06T00:45:09;10.23;;;6.80;;
20731;SDS011;10527;52.124;5.196;2023-04-06T00:47:36;11.70;;;6.80;;
20731;SDS011;10527;52.124;5.196;2023-04-06T00:50:04;10.17;;;6.33;;
20731;SDS011;10527;52.124;5.196;2023-04-06T00:52:31;11.20;;;7.10;;
20731;SDS011;10527;52.124;5.196;2023-04-06T00:55:00;11.30;;;7.03;;
20731;SDS011;10527;52.124;5.196;2023-04-06T00:57:28;10.00;;;6.73;;
20731;SDS011;10527;52.124;5.196;2023-04-06T00:59:56;9.97;;;6.83;;
20731;SDS011;10527;52.124;5.196;2023-04-06T01:02:23;9.30;;;6.60;;
20731;SDS011;10527;52.124;5.196;2023-04-06T01:04:52;11.63;;;7.53;;
20731;SDS011;10527;52.124;5.196;2023-04-06T01:07:20;8.93;;;6.73;;
20731;SDS011;10527;52.124;5.196;2023-04-06T01:09:47;10.63;;;6.97;;
20731;SDS011;10527;52.124;5.196;2023-04-06T01:12:14;9.63;;;7.33;;
20731;SDS011;10527;52.124;5.196;2023-04-06T01:14:58;10.23;;;6.40;;
20731;SDS011;10527;52.124;5.196;2023-04-06T01:17:25;9.97;;;6.63;;
20731;SDS011;10527;52.124;5.196;2023-04-06T01:19:52;9.10;;;6.53;;
20731;SDS011;10527;52.124;5.196;2023-04-06T01:22:19;8.53;;;5.83;;
20731;SDS011;10527;52.124;5.196;2023-04-06T01:24:49;10.10;;;6.27;;
20731;SDS011;10527;52.124;5.196;2023-04-06T01:27:16;9.63;;;6.37;;
20731;SDS011;10527;52.124;5.196;2023-04-06T01:29:43;8.80;;;6.20;;
20731;SDS011;10527;52.124;5.196;2023-04-06T01:32:10;9.60;;;6.77;;
20731;SDS011;10527;52.124;5.196;2023-04-06T01:34:37;9.70;;;6.50;;
20731;SDS011;10527;52.124;5.196;2023-04-06T01:37:04;8.80;;;6.57;;
20731;SDS011;10527;52.124;5.196;2023-04-06T01:39:31;12.03;;;6.43;;
20731;SDS011;10527;52.124;5.196;2023-04-06T01:41:58;8.57;;;6.63;;
20731;SDS011;10527;52.124;5.196;2023-04-06T01:44:24;10.40;;;7.23;;
20731;SDS011;10527;52.124;5.196;2023-04-06T01:46:51;9.73;;;6.37;;
20731;SDS011;10527;52.124;5.196;2023-04-06T01:49:18;13.37;;;6.83;;
20731;SDS011;10527;52.124;5.196;2023-04-06T01:51:45;11.07;;;7.13;;
20731;SDS011;10527;52.124;5.196;2023-04-06T01:54:12;9.27;;;5.50;;
20731;SDS011;10527;52.124;5.196;2023-04-06T01:56:39;9.67;;;6.33;;
20731;SDS011;10527;52.124;5.196;2023-04-06T01:59:06;8.50;;;6.30;;
20731;SDS011;10527;52.124;5.196;2023-04-06T02:01:34;10.00;;;6.10;;
20731;SDS011;10527;52.124;5.196;2023-04-06T02:04:00;8.40;;;6.63;;
20731;SDS011;10527;52.124;5.196;2023-04-06T02:06:30;8.60;;;5.67;;
20731;SDS011;10527;52.124;5.196;2023-04-06T02:08:57;8.50;;;5.87;;
20731;SDS011;10527;52.124;5.196;2023-04-06T02:11:24;12.80;;;6.30;;
20731;SDS011;10527;52.124;5.196;2023-04-06T02:13:50;9.47;;;6.43;;
20731;SDS011;10527;52.124;5.196;2023-04-06T02:16:17;8.70;;;5.73;;
20731;SDS011;10527;52.124;5.196;2023-04-06T02:18:44;9.03;;;6.07;;
20731;SDS011;10527;52.124;5.196;2023-04-06T02:21:11;7.97;;;5.90;;
20731;SDS011;10527;52.124;5.196;2023-04-06T02:23:38;10.17;;;6.57;;
20731;SDS011;10527;52.124;5.196;2023-04-06T02:26:05;9.33;;;6.00;;
20731;SDS011;10527;52.124;5.196;2023-04-06T02:28:32;9.50;;;7.57;;
20731;SDS011;10527;52.124;5.196;2023-04-06T02:30:59;11.63;;;6.13;;
20731;SDS011;10527;52.124;5.196;2023-04-06T02:33:25;8.53;;;5.93;;
20731;SDS011;10527;52.124;5.196;2023-04-06T02:35:52;10.20;;;6.80;;
20731;SDS011;10527;52.124;5.196;2023-04-06T02:38:19;9.77;;;6.17;;
20731;SDS011;10527;52.124;5.196;2023-04-06T02:40:46;9.63;;;6.20;;
20731;SDS011;10527;52.124;5.196;2023-04-06T02:43:12;10.57;;;6.40;;
20731;SDS011;10527;52.124;5.196;2023-04-06T02:45:39;7.43;;;5.20;;
20731;SDS011;10527;52.124;5.196;2023-04-06T02:48:06;10.47;;;6.20;;
20731;SDS011;10527;52.124;5.196;2023-04-06T02:50:33;11.73;;;6.50;;
20731;SDS011;10527;52.124;5.196;2023-04-06T02:53:00;8.73;;;6.70;;
20731;SDS011;10527;52.124;5.196;2023-04-06T02:55:27;8.73;;;5.33;;
20731;SDS011;10527;52.124;5.196;2023-04-06T02:57:53;10.43;;;5.70;;
20731;SDS011;10527;52.124;5.196;2023-04-06T03:00:20;10.30;;;7.40;;
20731;SDS011;10527;52.124;5.196;2023-04-06T03:02:47;9.73;;;6.53;;
20731;SDS011;10527;52.124;5.196;2023-04-06T03:05:17;10.50;;;6.30;;
20731;SDS011;10527;52.124;5.196;2023-04-06T03:07:43;9.97;;;6.30;;
20731;SDS011;10527;52.124;5.196;2023-04-06T03:10:10;10.10;;;6.53;;
20731;SDS011;10527;52.124;5.196;2023-04-06T03:12:37;8.27;;;6.10;;
20731;SDS011;10527;52.124;5.196;2023-04-06T03:15:04;11.80;;;7.43;;
20731;SDS011;10527;52.124;5.196;2023-04-06T03:17:32;10.53;;;6.87;;
20731;SDS011;10527;52.124;5.196;2023-04-06T03:19:59;9.23;;;6.63;;
20731;SDS011;10527;52.124;5.196;2023-04-06T03:22:25;11.67;;;7.13;;
20731;SDS011;10527;52.124;5.196;2023-04-06T03:24:52;8.40;;;6.50;;
20731;SDS011;10527;52.124;5.196;2023-04-06T03:27:19;11.33;;;7.47;;
20731;SDS011;10527;52.124;5.196;2023-04-06T03:29:45;10.07;;;7.10;;
20731;SDS011;10527;52.124;5.196;2023-04-06T03:32:12;11.13;;;7.47;;
20731;SDS011;10527;52.124;5.196;2023-04-06T03:34:39;10.97;;;7.57;;
20731;SDS011;10527;52.124;5.196;2023-04-06T03:37:06;11.00;;;7.23;;
20731;SDS011;10527;52.124;5.196;2023-04-06T03:39:35;10.90;;;7.03;;
20731;SDS011;10527;52.124;5.196;2023-04-06T03:42:02;13.53;;;7.27;;
20731;SDS011;10527;52.124;5.196;2023-04-06T03:44:29;9.37;;;7.43;;
20731;SDS011;10527;52.124;5.196;2023-04-06T03:46:56;12.90;;;7.60;;
20731;SDS011;10527;52.124;5.196;2023-04-06T03:49:23;11.50;;;7.67;;
20731;SDS011;10527;52.124;5.196;2023-04-06T03:51:50;12.33;;;7.57;;
20731;SDS011;10527;52.124;5.196;2023-04-06T03:54:17;10.67;;;7.37;;
20731;SDS011;10527;52.124;5.196;2023-04-06T03:56:44;8.53;;;6.70;;
20731;SDS011;10527;52.124;5.196;2023-04-06T03:59:11;12.27;;;7.50;;
20731;SDS011;10527;52.124;5.196;2023-04-06T04:01:38;13.63;;;7.43;;
20731;SDS011;10527;52.124;5.196;2023-04-06T04:04:05;9.67;;;7.03;;
20731;SDS011;10527;52.124;5.196;2023-04-06T04:06:32;13.63;;;8.03;;
20731;SDS011;10527;52.124;5.196;2023-04-06T04:08:59;11.67;;;7.53;;
20731;SDS011;10527;52.124;5.196;2023-04-06T04:11:25;11.50;;;8.10;;
20731;SDS011;10527;52.124;5.196;2023-04-06T04:13:52;11.13;;;8.30;;
20731;SDS011;10527;52.124;5.196;2023-04-06T04:16:19;12.67;;;7.93;;
20731;SDS011;10527;52.124;5.196;2023-04-06T04:18:46;11.67;;;7.93;;
20731;SDS011;10527;52.124;5.196;2023-04-06T04:21:15;13.87;;;8.03;;
20731;SDS011;10527;52.124;5.196;2023-04-06T04:23:42;11.17;;;7.67;;
20731;SDS011;10527;52.124;5.196;2023-04-06T04:26:09;11.37;;;8.07;;
20731;SDS011;10527;52.124;5.196;2023-04-06T04:28:37;11.17;;;7.77;;
20731;SDS011;10527;52.124;5.196;2023-04-06T04:31:04;10.13;;;7.53;;
20731;SDS011;10527;52.124;5.196;2023-04-06T04:33:31;12.10;;;8.37;;
20731;SDS011;10527;52.124;5.196;2023-04-06T04:35:58;12.73;;;7.97;;
20731;SDS011;10527;52.124;5.196;2023-04-06T04:38:24;15.17;;;9.37;;
20731;SDS011;10527;52.124;5.196;2023-04-06T04:40:51;14.00;;;8.07;;
20731;SDS011;10527;52.124;5.196;2023-04-06T04:43:18;12.00;;;8.80;;
20731;SDS011;10527;52.124;5.196;2023-04-06T04:45:45;11.10;;;7.90;;
20731;SDS011;10527;52.124;5.196;2023-04-06T04:48:11;13.30;;;8.03;;
20731;SDS011;10527;52.124;5.196;2023-04-06T04:50:38;12.07;;;8.10;;
20731;SDS011;10527;52.124;5.196;2023-04-06T04:53:05;11.23;;;7.90;;
20731;SDS011;10527;52.124;5.196;2023-04-06T04:55:32;12.33;;;8.33;;
20731;SDS011;10527;52.124;5.196;2023-04-06T04:57:59;13.20;;;8.30;;
20731;SDS011;10527;52.124;5.196;2023-04-06T05:00:26;17.37;;;8.73;;
20731;SDS011;10527;52.124;5.196;2023-04-06T05:02:53;13.67;;;8.70;;
20731;SDS011;10527;52.124;5.196;2023-04-06T05:05:20;12.50;;;8.60;;
20731;SDS011;10527;52.124;5.196;2023-04-06T05:07:46;18.13;;;9.33;;
20731;SDS011;10527;52.124;5.196;2023-04-06T05:10:13;13.63;;;9.10;;
20731;SDS011;10527;52.124;5.196;2023-04-06T05:12:40;15.00;;;10.07;;
20731;SDS011;10527;52.124;5.196;2023-04-06T05:15:07;14.80;;;8.53;;
20731;SDS011;10527;52.124;5.196;2023-04-06T05:17:35;12.97;;;8.80;;
20731;SDS011;10527;52.124;5.196;2023-04-06T05:20:02;13.13;;;8.80;;
20731;SDS011;10527;52.124;5.196;2023-04-06T05:22:29;13.47;;;8.97;;
20731;SDS011;10527;52.124;5.196;2023-04-06T05:24:56;12.63;;;9.00;;
20731;SDS011;10527;52.124;5.196;2023-04-06T05:27:24;16.93;;;9.80;;
20731;SDS011;10527;52.124;5.196;2023-04-06T05:29:51;14.77;;;9.23;;
20731;SDS011;10527;52.124;5.196;2023-04-06T05:32:20;13.77;;;9.27;;
20731;SDS011;10527;52.124;5.196;2023-04-06T05:34:48;12.23;;;9.00;;
20731;SDS011;10527;52.124;5.196;2023-04-06T05:37:16;15.37;;;9.43;;
20731;SDS011;10527;52.124;5.196;2023-04-06T05:39:43;12.87;;;8.80;;
20731;SDS011;10527;52.124;5.196;2023-04-06T05:42:09;13.97;;;9.33;;
20731;SDS011;10527;52.124;5.196;2023-04-06T05:44:37;15.23;;;10.70;;
20731;SDS011;10527;52.124;5.196;2023-04-06T05:47:04;14.20;;;9.80;;
20731;SDS011;10527;52.124;5.196;2023-04-06T05:49:31;15.60;;;10.10;;
20731;SDS011;10527;52.124;5.196;2023-04-06T05:52:00;12.23;;;9.67;;
20731;SDS011;10527;52.124;5.196;2023-04-06T05:54:27;13.47;;;9.83;;
20731;SDS011;10527;52.124;5.196;2023-04-06T05:56:54;14.73;;;10.23;;
20731;SDS011;10527;52.124;5.196;2023-04-06T05:59:21;14.80;;;10.27;;
20731;SDS011;10527;52.124;5.196;2023-04-06T06:01:48;17.13;;;9.97;;
20731;SDS011;10527;52.124;5.196;2023-04-06T06:04:14;14.90;;;9.37;;
20731;SDS011;10527;52.124;5.196;2023-04-06T06:06:41;13.77;;;10.20;;
20731;SDS011;10527;52.124;5.196;2023-04-06T06:09:08;18.37;;;10.77;;
20731;SDS011;10527;52.124;5.196;2023-04-06T06:11:35;18.57;;;10.93;;
20731;SDS011;10527;52.124;5.196;2023-04-06T06:14:03;16.77;;;10.17;;
20731;SDS011;10527;52.124;5.196;2023-04-06T06:16:30;17.47;;;11.10;;
20731;SDS011;10527;52.124;5.196;2023-04-06T06:18:58;14.27;;;9.77;;
20731;SDS011;10527;52.124;5.196;2023-04-06T06:21:25;12.93;;;9.50;;
20731;SDS011;10527;52.124;5.196;2023-04-06T06:23:52;15.87;;;11.07;;
20731;SDS011;10527;52.124;5.196;2023-04-06T06:26:20;16.37;;;11.27;;
20731;SDS011;10527;52.124;5.196;2023-04-06T06:28:48;17.80;;;10.40;;
20731;SDS011;10527;52.124;5.196;2023-04-06T06:31:14;16.33;;;10.17;;
20731;SDS011;10527;52.124;5.196;2023-04-06T06:33:43;13.83;;;10.27;;
20731;SDS011;10527;52.124;5.196;2023-04-06T06:36:10;17.53;;;11.47;;
20731;SDS011;10527;52.124;5.196;2023-04-06T06:38:37;16.67;;;11.00;;
20731;SDS011;10527;52.124;5.196;2023-04-06T06:41:04;17.93;;;11.77;;
20731;SDS011;10527;52.124;5.196;2023-04-06T06:43:31;15.33;;;11.33;;
20731;SDS011;10527;52.124;5.196;2023-04-06T06:45:58;17.50;;;11.83;;
20731;SDS011;10527;52.124;5.196;2023-04-06T06:48:25;16.97;;;12.00;;
20731;SDS011;10527;52.124;5.196;2023-04-06T06:50:52;17.27;;;11.33;;
20731;SDS011;10527;52.124;5.196;2023-04-06T06:53:19;17.03;;;11.30;;
20731;SDS011;10527;52.124;5.196;2023-04-06T06:55:46;15.53;;;11.27;;
20731;SDS011;10527;52.124;5.196;2023-04-06T06:58:15;17.50;;;11.57;;
20731;SDS011;10527;52.124;5.196;2023-04-06T07:00:45;16.87;;;11.47;;
20731;SDS011;10527;52.124;5.196;2023-04-06T07:03:12;19.03;;;11.30;;
20731;SDS011;10527;52.124;5.196;2023-04-06T07:05:39;16.37;;;11.50;;
20731;SDS011;10527;52.124;5.196;2023-04-06T07:08:16;18.97;;;11.87;;
20731;SDS011;10527;52.124;5.196;2023-04-06T07:10:43;18.77;;;11.47;;
20731;SDS011;10527;52.124;5.196;2023-04-06T07:13:09;17.13;;;11.50;;
20731;SDS011;10527;52.124;5.196;2023-04-06T07:15:36;16.83;;;10.90;;
20731;SDS011;10527;52.124;5.196;2023-04-06T07:18:03;16.70;;;12.10;;
20731;SDS011;10527;52.124;5.196;2023-04-06T07:20:30;20.40;;;12.83;;
20731;SDS011;10527;52.124;5.196;2023-04-06T07:22:57;18.40;;;12.20;;
20731;SDS011;10527;52.124;5.196;2023-04-06T07:25:24;22.13;;;12.43;;
20731;SDS011;10527;52.124;5.196;2023-04-06T07:27:51;17.13;;;11.63;;
20731;SDS011;10527;52.124;5.196;2023-04-06T07:30:18;22.50;;;12.50;;
20731;SDS011;10527;52.124;5.196;2023-04-06T07:32:45;16.87;;;11.33;;
20731;SDS011;10527;52.124;5.196;2023-04-06T07:35:12;16.43;;;11.43;;
20731;SDS011;10527;52.124;5.196;2023-04-06T07:37:39;15.97;;;11.30;;
20731;SDS011;10527;52.124;5.196;2023-04-06T07:40:06;21.60;;;12.13;;
20731;SDS011;10527;52.124;5.196;2023-04-06T07:42:33;18.43;;;11.80;;
20731;SDS011;10527;52.124;5.196;2023-04-06T07:45:00;16.80;;;11.10;;
20731;SDS011;10527;52.124;5.196;2023-04-06T07:47:27;19.43;;;12.30;;
20731;SDS011;10527;52.124;5.196;2023-04-06T07:49:54;17.43;;;11.37;;
20731;SDS011;10527;52.124;5.196;2023-04-06T07:52:24;18.93;;;12.30;;
20731;SDS011;10527;52.124;5.196;2023-04-06T07:54:51;18.57;;;12.33;;
20731;SDS011;10527;52.124;5.196;2023-04-06T07:57:18;19.13;;;12.70;;
20731;SDS011;10527;52.124;5.196;2023-04-06T07:59:44;19.77;;;12.73;;
20731;SDS011;10527;52.124;5.196;2023-04-06T08:02:12;20.13;;;11.93;;
20731;SDS011;10527;52.124;5.196;2023-04-06T08:04:39;18.83;;;12.33;;
20731;SDS011;10527;52.124;5.196;2023-04-06T08:07:05;18.13;;;12.57;;
20731;SDS011;10527;52.124;5.196;2023-04-06T08:09:32;27.63;;;14.33;;
20731;SDS011;10527;52.124;5.196;2023-04-06T08:11:59;20.47;;;12.67;;
20731;SDS011;10527;52.124;5.196;2023-04-06T08:14:26;18.17;;;13.03;;
20731;SDS011;10527;52.124;5.196;2023-04-06T08:16:53;18.67;;;12.97;;
20731;SDS011;10527;52.124;5.196;2023-04-06T08:19:19;19.40;;;14.40;;
20731;SDS011;10527;52.124;5.196;2023-04-06T08:21:46;21.17;;;13.30;;
20731;SDS011;10527;52.124;5.196;2023-04-06T08:24:13;19.77;;;12.80;;
20731;SDS011;10527;52.124;5.196;2023-04-06T08:26:41;18.33;;;13.13;;
20731;SDS011;10527;52.124;5.196;2023-04-06T08:29:08;19.83;;;13.53;;
20731;SDS011;10527;52.124;5.196;2023-04-06T08:31:35;21.33;;;13.67;;
20731;SDS011;10527;52.124;5.196;2023-04-06T08:34:05;21.47;;;13.13;;
20731;SDS011;10527;52.124;5.196;2023-04-06T08:36:35;20.93;;;13.27;;
20731;SDS011;10527;52.124;5.196;2023-04-06T08:39:02;20.17;;;13.93;;
20731;SDS011;10527;52.124;5.196;2023-04-06T08:41:28;19.17;;;12.77;;
20731;SDS011;10527;52.124;5.196;2023-04-06T08:43:59;21.20;;;13.23;;
20731;SDS011;10527;52.124;5.196;2023-04-06T08:46:29;20.77;;;13.57;;
20731;SDS011;10527;52.124;5.196;2023-04-06T08:48:58;23.17;;;13.73;;
20731;SDS011;10527;52.124;5.196;2023-04-06T08:51:27;21.43;;;13.50;;
20731;SDS011;10527;52.124;5.196;2023-04-06T08:53:57;19.95;;;13.75;;
20731;SDS011;10527;52.124;5.196;2023-04-06T08:56:25;22.30;;;13.30;;
20731;SDS011;10527;52.124;5.196;2023-04-06T08:58:54;21.40;;;13.10;;
20731;SDS011;10527;52.124;5.196;2023-04-06T09:01:26;20.03;;;13.27;;
20731;SDS011;10527;52.124;5.196;2023-04-06T09:03:58;20.17;;;14.43;;
20731;SDS011;10527;52.124;5.196;2023-04-06T09:06:27;22.33;;;14.37;;
20731;SDS011;10527;52.124;5.196;2023-04-06T09:08:54;20.37;;;12.50;;
20731;SDS011;10527;52.124;5.196;2023-04-06T09:11:22;22.17;;;13.83;;
20731;SDS011;10527;52.124;5.196;2023-04-06T09:13:51;22.00;;;14.03;;
20731;SDS011;10527;52.124;5.196;2023-04-06T09:16:20;20.37;;;13.33;;
20731;SDS011;10527;52.124;5.196;2023-04-06T09:18:49;18.57;;;12.37;;
20731;SDS011;10527;52.124;5.196;2023-04-06T09:21:16;22.40;;;14.10;;
20731;SDS011;10527;52.124;5.196;2023-04-06T09:23:57;21.00;;;13.60;;
20731;SDS011;10527;52.124;5.196;2023-04-06T09:26:28;20.00;;;13.13;;
20731;SDS011;10527;52.124;5.196;2023-04-06T09:28:58;19.97;;;13.40;;
20731;SDS011;10527;52.124;5.196;2023-04-06T09:31:46;21.50;;;14.07;;
20731;SDS011;10527;52.124;5.196;2023-04-06T09:34:20;18.70;;;13.20;;
20731;SDS011;10527;52.124;5.196;2023-04-06T09:36:49;20.60;;;14.50;;
20731;SDS011;10527;52.124;5.196;2023-04-06T09:39:20;22.10;;;14.68;;
20731;SDS011;10527;52.124;5.196;2023-04-06T09:41:51;20.40;;;14.43;;
20731;SDS011;10527;52.124;5.196;2023-04-06T09:44:20;30.70;;;15.93;;
20731;SDS011;10527;52.124;5.196;2023-04-06T09:46:46;23.80;;;15.47;;
20731;SDS011;10527;52.124;5.196;2023-04-06T09:49:27;25.10;;;15.30;;
20731;SDS011;10527;52.124;5.196;2023-04-06T09:51:59;19.23;;;14.10;;
20731;SDS011;10527;52.124;5.196;2023-04-06T09:54:29;23.83;;;15.60;;
20731;SDS011;10527;52.124;5.196;2023-04-06T10:02:32;22.47;;;15.07;;
20731;SDS011;10527;52.124;5.196;2023-04-06T10:08:21;22.33;;;14.85;;
20731;SDS011;10527;52.124;5.196;2023-04-06T10:10:57;26.85;;;14.70;;
20731;SDS011;10527;52.124;5.196;2023-04-06T10:13:27;22.63;;;14.30;;
20731;SDS011;10527;52.124;5.196;2023-04-06T10:15:54;21.37;;;13.37;;
20731;SDS011;10527;52.124;5.196;2023-04-06T10:18:23;19.63;;;11.87;;
20731;SDS011;10527;52.124;5.196;2023-04-06T10:21:09;21.63;;;11.33;;
20731;SDS011;10527;52.124;5.196;2023-04-06T10:23:45;17.17;;;10.20;;
20731;SDS011;10527;52.124;5.196;2023-04-06T10:26:19;14.70;;;8.70;;
20731;SDS011;10527;52.124;5.196;2023-04-06T10:28:48;12.43;;;8.60;;
20731;SDS011;10527;52.124;5.196;2023-04-06T10:31:26;12.73;;;7.73;;
20731;SDS011;10527;52.124;5.196;2023-04-06T10:33:58;12.00;;;7.80;;
20731;SDS011;10527;52.124;5.196;2023-04-06T10:36:27;11.87;;;7.20;;
20731;SDS011;10527;52.124;5.196;2023-04-06T10:39:00;10.57;;;7.35;;
20731;SDS011;10527;52.124;5.196;2023-04-06T10:41:43;10.03;;;6.67;;
20731;SDS011;10527;52.124;5.196;2023-04-06T10:44:23;10.00;;;5.73;;
20731;SDS011;10527;52.124;5.196;2023-04-06T10:46:57;7.50;;;5.77;;
20731;SDS011;10527;52.124;5.196;2023-04-06T10:49:28;8.83;;;5.40;;
20731;SDS011;10527;52.124;5.196;2023-04-06T10:51:56;6.10;;;4.73;;
20731;SDS011;10527;52.124;5.196;2023-04-06T10:54:24;6.27;;;3.90;;
20731;SDS011;10527;52.124;5.196;2023-04-06T10:56:53;5.73;;;3.93;;
20731;SDS011;10527;52.124;5.196;2023-04-06T10:59:22;5.73;;;3.83;;
20731;SDS011;10527;52.124;5.196;2023-04-06T11:01:51;5.60;;;3.90;;
20731;SDS011;10527;52.124;5.196;2023-04-06T11:04:19;4.37;;;3.20;;
20731;SDS011;10527;52.124;5.196;2023-04-06T11:06:47;5.72;;;3.53;;
20731;SDS011;10527;52.124;5.196;2023-04-06T11:09:28;7.10;;;3.97;;
20731;SDS011;10527;52.124;5.196;2023-04-06T11:11:57;5.27;;;3.70;;
20731;SDS011;10527;52.124;5.196;2023-04-06T11:14:24;5.93;;;4.30;;
20731;SDS011;10527;52.124;5.196;2023-04-06T11:16:52;5.73;;;4.10;;
20731;SDS011;10527;52.124;5.196;2023-04-06T11:19:20;5.90;;;3.42;;
20731;SDS011;10527;52.124;5.196;2023-04-06T11:21:47;4.83;;;3.70;;
20731;SDS011;10527;52.124;5.196;2023-04-06T11:24:24;6.07;;;4.27;;
20731;SDS011;10527;52.124;5.196;2023-04-06T11:26:52;8.20;;;4.00;;
20731;SDS011;10527;52.124;5.196;2023-04-06T11:29:28;6.70;;;4.63;;
20731;SDS011;10527;52.124;5.196;2023-04-06T11:32:00;6.50;;;3.97;;
20731;SDS011;10527;52.124;5.196;2023-04-06T11:34:30;5.57;;;4.10;;
20731;SDS011;10527;52.124;5.196;2023-04-06T11:37:07;5.53;;;4.23;;
20731;SDS011;10527;52.124;5.196;2023-04-06T11:39:40;5.33;;;4.03;;
20731;SDS011;10527;52.124;5.196;2023-04-06T11:42:27;5.80;;;4.03;;
20731;SDS011;10527;52.124;5.196;2023-04-06T11:44:56;4.37;;;3.50;;
20731;SDS011;10527;52.124;5.196;2023-04-06T11:47:28;5.07;;;3.70;;
20731;SDS011;10527;52.124;5.196;2023-04-06T11:50:04;5.83;;;4.03;;
20731;SDS011;10527;52.124;5.196;2023-04-06T11:52:41;6.93;;;4.23;;
20731;SDS011;10527;52.124;5.196;2023-04-06T11:57:44;5.13;;;4.10;;
20731;SDS011;10527;52.124;5.196;2023-04-06T12:00:11;7.13;;;4.27;;
20731;SDS011;10527;52.124;5.196;2023-04-06T12:02:39;7.40;;;4.23;;
20731;SDS011;10527;52.124;5.196;2023-04-06T12:05:06;4.57;;;4.00;;
20731;SDS011;10527;52.124;5.196;2023-04-06T12:07:34;7.00;;;4.73;;
20731;SDS011;10527;52.124;5.196;2023-04-06T12:10:01;6.63;;;4.63;;
20731;SDS011;10527;52.124;5.196;2023-04-06T12:12:31;7.87;;;4.50;;
20731;SDS011;10527;52.124;5.196;2023-04-06T12:14:58;6.83;;;4.73;;
20731;SDS011;10527;52.124;5.196;2023-04-06T12:17:26;6.17;;;5.00;;
20731;SDS011;10527;52.124;5.196;2023-04-06T12:19:53;6.73;;;4.73;;
20731;SDS011;10527;52.124;5.196;2023-04-06T12:22:24;6.73;;;5.10;;
20731;SDS011;10527;52.124;5.196;2023-04-06T12:24:51;7.43;;;5.33;;
20731;SDS011;10527;52.124;5.196;2023-04-06T12:27:17;7.80;;;5.27;;
20731;SDS011;10527;52.124;5.196;2023-04-06T12:29:44;8.03;;;5.80;;
20731;SDS011;10527;52.124;5.196;2023-04-06T12:32:11;7.63;;;5.63;;
20731;SDS011;10527;52.124;5.196;2023-04-06T12:34:38;7.20;;;5.37;;
20731;SDS011;10527;52.124;5.196;2023-04-06T12:37:05;7.57;;;5.70;;
20731;SDS011;10527;52.124;5.196;2023-04-06T12:39:32;8.20;;;6.20;;
20731;SDS011;10527;52.124;5.196;2023-04-06T12:41:59;7.03;;;5.37;;
20731;SDS011;10527;52.124;5.196;2023-04-06T12:44:27;9.50;;;6.90;;
20731;SDS011;10527;52.124;5.196;2023-04-06T12:46:55;9.97;;;6.63;;
20731;SDS011;10527;52.124;5.196;2023-04-06T12:49:22;8.30;;;6.40;;
20731;SDS011;10527;52.124;5.196;2023-04-06T12:51:49;6.90;;;5.33;;
20731;SDS011;10527;52.124;5.196;2023-04-06T12:54:16;6.90;;;5.33;;
20731;SDS011;10527;52.124;5.196;2023-04-06T12:56:43;6.90;;;5.93;;
20731;SDS011;10527;52.124;5.196;2023-04-06T12:59:10;9.53;;;7.00;;
20731;SDS011;10527;52.124;5.196;2023-04-06T13:01:37;7.80;;;6.27;;
20731;SDS011;10527;52.124;5.196;2023-04-06T13:04:04;8.73;;;6.57;;
20731;SDS011;10527;52.124;5.196;2023-04-06T13:06:31;9.57;;;7.07;;
20731;SDS011;10527;52.124;5.196;2023-04-06T13:08:58;9.07;;;6.80;;
20731;SDS011;10527;52.124;5.196;2023-04-06T13:11:25;8.10;;;6.77;;
20731;SDS011;10527;52.124;5.196;2023-04-06T13:13:54;9.57;;;6.17;;
20731;SDS011;10527;52.124;5.196;2023-04-06T13:16:21;9.17;;;6.57;;
20731;SDS011;10527;52.124;5.196;2023-04-06T13:18:48;8.90;;;6.50;;
20731;SDS011;10527;52.124;5.196;2023-04-06T13:21:15;9.00;;;6.47;;
20731;SDS011;10527;52.124;5.196;2023-04-06T13:23:42;10.60;;;6.33;;
20731;SDS011;10527;52.124;5.196;2023-04-06T13:26:11;10.20;;;7.37;;
20731;SDS011;10527;52.124;5.196;2023-04-06T13:28:39;8.03;;;6.20;;
20731;SDS011;10527;52.124;5.196;2023-04-06T13:31:07;9.03;;;6.40;;
20731;SDS011;10527;52.124;5.196;2023-04-06T13:33:34;8.67;;;6.40;;
20731;SDS011;10527;52.124;5.196;2023-04-06T13:36:02;9.47;;;6.50;;
20731;SDS011;10527;52.124;5.196;2023-04-06T13:38:29;8.23;;;6.03;;
20731;SDS011;10527;52.124;5.196;2023-04-06T13:40:57;9.73;;;6.50;;
20731;SDS011;10527;52.124;5.196;2023-04-06T13:43:23;9.87;;;6.43;;
20731;SDS011;10527;52.124;5.196;2023-04-06T13:45:53;10.30;;;6.27;;
20731;SDS011;10527;52.124;5.196;2023-04-06T13:48:21;9.70;;;6.80;;
20731;SDS011;10527;52.124;5.196;2023-04-06T13:50:49;9.83;;;7.10;;
20731;SDS011;10527;52.124;5.196;2023-04-06T13:53:16;9.93;;;6.80;;
20731;SDS011;10527;52.124;5.196;2023-04-06T13:55:51;9.63;;;7.27;;
20731;SDS011;10527;52.124;5.196;2023-04-06T13:58:20;9.63;;;7.17;;
20731;SDS011;10527;52.124;5.196;2023-04-06T14:00:47;10.80;;;7.77;;
20731;SDS011;10527;52.124;5.196;2023-04-06T14:03:14;9.87;;;7.33;;
20731;SDS011;10527;52.124;5.196;2023-04-06T14:05:41;9.40;;;6.73;;
20731;SDS011;10527;52.124;5.196;2023-04-06T14:08:08;10.73;;;7.10;;
20731;SDS011;10527;52.124;5.196;2023-04-06T14:10:39;11.83;;;6.93;;
20731;SDS011;10527;52.124;5.196;2023-04-06T14:13:08;8.53;;;6.80;;
20731;SDS011;10527;52.124;5.196;2023-04-06T14:15:35;9.27;;;7.20;;
20731;SDS011;10527;52.124;5.196;2023-04-06T14:18:01;7.67;;;6.30;;
20731;SDS011;10527;52.124;5.196;2023-04-06T14:20:30;8.00;;;6.77;;
20731;SDS011;10527;52.124;5.196;2023-04-06T14:23:02;8.97;;;7.17;;
20731;SDS011;10527;52.124;5.196;2023-04-06T14:25:30;9.77;;;7.57;;
20731;SDS011;10527;52.124;5.196;2023-04-06T14:28:01;9.10;;;6.50;;
20731;SDS011;10527;52.124;5.196;2023-04-06T14:30:29;8.97;;;6.27;;
20731;SDS011;10527;52.124;5.196;2023-04-06T14:32:57;10.53;;;7.63;;
20731;SDS011;10527;52.124;5.196;2023-04-06T14:35:24;9.73;;;6.73;;
20731;SDS011;10527;52.124;5.196;2023-04-06T14:37:54;8.80;;;6.77;;
20731;SDS011;10527;52.124;5.196;2023-04-06T14:40:23;8.93;;;6.63;;
20731;SDS011;10527;52.124;5.196;2023-04-06T14:42:50;8.87;;;6.17;;
20731;SDS011;10527;52.124;5.196;2023-04-06T14:45:17;9.43;;;6.60;;
20731;SDS011;10527;52.124;5.196;2023-04-06T14:47:46;8.10;;;6.50;;
20731;SDS011;10527;52.124;5.196;2023-04-06T14:50:12;7.63;;;5.90;;
20731;SDS011;10527;52.124;5.196;2023-04-06T14:52:39;7.80;;;6.60;;